Nearby METAR Reports

 

KCOS - Colorado Springs, Colorado, USA
Distance from station: S 6mi, 9km
Updated: 10/17/2018 9:54pm
Mostly cloudy
Mostly cloudy
 Wind from SSE
Wind: SSE 9 mph , 15 km/h
Temperature: 43°F , 6°C
Wind Chill: 38°F , 3°C
Dew Point: 34°F , 1°C
Humidity: 71%
Barometer: 30.48 inHg , 1032.2 hPa
Clouds: Mostly cloudy
Visibility: 10 miles , 16 km
Cloud details: Partly cloudy 3300 ft
Mostly cloudy 4300 ft
2018/10/18 03:54 KCOS 180354Z 16008KT 10SM SCT033 BKN043 06/01 A3048 RMK AO2 SLP312 T00560011
KAFF - Usaf Academy/Cos, Colorado, USA
Distance from station: NW 7mi, 12km
Updated: 10/17/2018 10:13pm
Few Clouds
Few Clouds
 Wind from SSE
Wind: SSE 17 mph , 28 km/h
Temperature: 41°F , 5°C
Wind Chill: 33°F , 1°C
Dew Point: 34°F , 1°C
Humidity: 76%
Barometer: 30.45 inHg , 1031.2 hPa
Clouds: Few Clouds
Visibility: 10 miles , 16 km
Cloud details: Few Clouds 3700 ft
2018/10/18 04:13 KAFF 180413Z AUTO 15015KT 10SM FEW037 05/01 A3045 RMK AO2 SLP294
 
KFLY - Co Spngs Meadow, Colorado, USA
Distance from station: ENE 8mi, 13km
Updated: 10/17/2018 10:35pm
Mostly cloudy
Mostly cloudy
 Wind from S
Wind: S 13 mph , 20 km/h, Gust: 20 mph , 31 km/h
Temperature: 39°F , 4°C
Wind Chill: 31°F , -1°C
Dew Point: 32°F , 0°C
Humidity: 75%
Barometer: 30.47 inHg , 1031.8 hPa
Clouds: Mostly cloudy
Visibility: 10 miles , 16 km
Cloud details: Mostly cloudy 3100 ft
2018/10/18 04:35 KFLY 180435Z AUTO 19011G17KT 10SM BKN031 04/00 A3047 RMK AO2 T00380001
KFCS - Fort Carson, Colorado, USA
Distance from station: S 17mi, 27km
Updated: 10/17/2018 9:58pm
Mostly cloudy
Mostly cloudy
 Wind from SSW
Wind: SSW 6 mph , 9 km/h
Temperature: 41°F , 5°C
Wind Chill: 37°F , 3°C
Dew Point: 34°F , 1°C
Humidity: 76%
Barometer: 30.46 inHg , 1031.5 hPa
Clouds: Mostly cloudy
Visibility: 10 miles , 16 km
Cloud details: Partly cloudy 3400 ft
Mostly cloudy 4700 ft
2018/10/18 03:58 KFCS 180358Z AUTO 21005KT 10SM SCT034 BKN047 05/01 A3046 RMK AO2 SLP328 T00530012 $
 
KMNH - Monument/Elbert, Colorado, USA
Distance from station: N 22mi, 35km
Updated: 10/17/2018 10:24pm
Clear
Clear
 Wind from S
Wind: S 20 mph , 31 km/h, Gust: 25 mph , 41 km/h
Temperature: 36°F , 2°C
Wind Chill: 25°F , -4°C
Dew Point: 32°F , 0°C
Humidity: 87%
Barometer: 30.44 inHg , 1030.8 hPa
Clouds: Clear
Visibility: 10 miles , 16 km
2018/10/18 04:24 KMNH 180424Z AUTO 18017G22KT 10SM CLR 02/00 A3044 RMK AO2
K1V6 - Canon City, Colorado, USA
Distance from station: SSW 39mi, 62km
Updated: 10/17/2018 4:10pm
NOT Current
Overcast
Overcast
 Wind from ESE
Wind: ESE 13 mph , 20 km/h, Gust: 20 mph , 31 km/h
Temperature: 55°F , 13°C
Dew Point: 32°F , 0°C
Humidity: 41%
Barometer: 30.44 inHg , 1030.8 hPa
Clouds: Overcast
Visibility: 10 miles , 16 km
Cloud details: Overcast 6000 ft
2018/10/17 22:10 K1V6 172210Z AUTO 11011G17KT 10SM OVC060 13/00 A3044 RMK AO2
 
KPUB - Pueblo, Colorado, USA
Distance from station: SSE 44mi, 71km
Updated: 10/17/2018 9:53pm
Clear
Clear
 Wind from ESE
Wind: ESE 7 mph , 11 km/h
Temperature: 45°F , 7°C
Wind Chill: 41°F , 5°C
Dew Point: 36°F , 2°C
Humidity: 71%
Barometer: 30.44 inHg , 1030.8 hPa
Clouds: Clear
Visibility: 10 miles , 16 km
2018/10/18 03:53 KPUB 180353Z 11006KT 10SM CLR 07/02 A3044 RMK AO2 SLP297 T00720022
KAPA - Denver/Arapahoe, Colorado, USA
Distance from station: N 47mi, 75km
Updated: 10/17/2018 9:53pm
Partly cloudy
Partly cloudy
 Wind from S
Wind: S 21 mph , 33 km/h
Temperature: 45°F , 7°C
Wind Chill: 37°F , 3°C
Dew Point: 34°F , 1°C
Humidity: 66%
Barometer: 30.40 inHg , 1029.5 hPa
Clouds: Partly cloudy
Visibility: 10 miles , 16 km
Cloud details: Partly cloudy 9000 ft
2018/10/18 03:53 KAPA 180353Z 17018KT 10SM SCT090 07/01 A3040 RMK AO2 PK WND 17027/0331 SLP286 T00720011